Sri Lanka

Resources for Sri Lanka vACC

Active Sector File
vatwa-srm.rar | Release Date 6/1/2016 | Downloads 20 | File Size 0.55 MB

Alias File
vccc-vrmf-alias.zip | Downloads 13 | File Size 2.11 KB

Position File
vccc-vrmf-pof.zip | Downloads 13   | File Size 2.11 KB

Crib File
VCBI-VCRI_Crib.pdf | Downloads 25 | File Size 0.63 MB

VATSIM Metar for Sri Lanka
VCRI 221210Z 35005KT 9999 DZ SCT017 BKN070 25/25 Q1011 RE-SHRA NOSIG
VCBI 221210Z 05015KT 9999 SCT017 FEW019CB 30/24 Q1009 NOSIG RMK N/NE/E/SE